Time;durP1;ratioP1;P1;durP2;ratioP2;P2;SDS_P1;SDS_P2;PMS_P1;PMS_P2;Temp;Humidity;BMP_temperature;BMP_pressure;BME280_temperature;BME280_humidity;BME280_pressure;Samples;Min_cycle;Max_cycle;Signal;HPM_P1;HPM_P2
2023/02/02 00:00:42;;;;;;;;;;;;;;;15.13;34.48;97195.22;5057033;28;19921;-84
2023/02/02 00:03:09;;;;;;;;;;;;;;;16.02;34.12;97199.41;5056809;28;19913;-84
2023/02/02 00:05:35;;;;;;;;;;;;;;;16.24;32.54;97208.41;5058524;28;19967;-84
2023/02/02 00:08:02;;;;;;;;;;;;;;;18.20;30.54;97205.22;5074880;28;19924;-84
2023/02/02 00:10:28;;;;;;;;;;;;;;;17.05;30.97;97210.72;5057198;28;20430;-84
2023/02/02 00:12:56;;;;;;;;;;;;;;;16.24;33.04;97208.41;5056970;28;19972;-83
2023/02/02 00:15:23;;;;;;;;;;;;;;;15.49;34.64;97227.22;5056470;28;19917;-84
2023/02/02 00:17:49;;;;;;;;;;;;;;;16.25;33.13;97218.28;5057096;28;19978;-84
2023/02/02 00:20:15;;;;;;;;;;;;;;;17.63;31.05;97216.19;5057297;28;19920;-84
2023/02/02 00:22:41;;;;;;;;;;;;;;;18.24;30.44;97207.97;5076548;28;19916;-84
2023/02/02 00:25:07;;;;;;;;;;;;;;;16.85;32.04;97218.75;5075867;28;19920;-83
2023/02/02 00:27:33;;;;;;;;;;;;;;;16.43;32.75;97224.53;5076357;28;19920;-84
2023/02/02 00:29:59;;;;;;;;;;;;;;;17.87;30.92;97237.34;5076235;28;19994;-84
2023/02/02 00:32:25;;;;;;;;;;;;;;;17.39;31.04;97225.47;5067643;28;19917;-84
2023/02/02 00:34:51;;;;;;;;;;;;;;;16.93;31.23;97227.84;5076483;28;20067;-85
2023/02/02 00:37:17;;;;;;;;;;;;;;;16.27;33.40;97224.22;5076367;28;19916;-84
2023/02/02 00:39:43;;;;;;;;;;;;;;;17.01;32.18;97235.69;5074513;28;19925;-83
2023/02/02 00:42:10;;;;;;;;;;;;;;;17.12;31.20;97232.84;5072453;28;19924;-83
2023/02/02 00:47:21;;;;;;;;;;;;;;;16.02;33.44;97234.59;5056081;28;20437;-83
2023/02/02 00:49:47;;;;;;;;;;;;;;;16.43;32.66;97230.88;5056226;28;19923;-83
2023/02/02 00:52:13;;;;;;;;;;;;;;;16.01;32.88;97238.56;5055784;28;19924;-83
2023/02/02 00:54:39;;;;;;;;;;;;;;;17.59;31.18;97232.09;5055932;28;20372;-83
2023/02/02 00:57:05;;;;;;;;;;;;;;;17.44;30.83;97233.38;5055801;28;19917;-83
2023/02/02 00:59:32;;;;;;;;;;;;;;;16.02;33.22;97237.38;5062493;28;19950;-83
2023/02/02 01:01:58;;;;;;;;;;;;;;;18.02;29.76;97210.19;5075527;28;19916;-84
2023/02/02 01:04:24;;;;;;;;;;;;;;;16.45;32.31;97236.03;5074429;28;19921;-82
2023/02/02 01:06:50;;;;;;;;;;;;;;;16.28;32.72;97236.88;5066347;28;20372;-83
2023/02/02 01:09:16;;;;;;;;;;;;;;;16.84;31.81;97242.16;5076309;28;19916;-82
2023/02/02 01:11:42;;;;;;;;;;;;;;;16.43;32.16;97239.19;5075735;28;19920;-82
2023/02/02 01:14:08;;;;;;;;;;;;;;;16.34;32.92;97243.56;5075844;28;19923;-83
2023/02/02 01:16:33;;;;;;;;;;;;;;;16.28;32.61;97257.06;5068162;28;19928;-81
2023/02/02 01:19:00;;;;;;;;;;;;;;;16.79;31.88;97247.31;5055479;28;19917;-82
2023/02/02 01:21:26;;;;;;;;;;;;;;;16.75;31.49;97232.72;5055608;28;19917;-82
2023/02/02 01:23:52;;;;;;;;;;;;;;;17.32;30.85;97255.28;5055224;28;19982;-82
2023/02/02 01:26:18;;;;;;;;;;;;;;;16.68;32.04;97252.16;5055321;28;20447;-82
2023/02/02 01:28:44;;;;;;;;;;;;;;;16.23;32.54;97251.94;5054978;28;19955;-82
2023/02/02 01:31:13;;;;;;;;;;;;;;;15.72;33.50;97271.06;5061485;28;20288;-82
2023/02/02 01:33:40;;;;;;;;;;;;;;;16.74;31.87;97258.84;5067424;28;19923;-82
2023/02/02 01:36:07;;;;;;;;;;;;;;;16.63;31.88;97256.13;5055235;28;19917;-82
2023/02/02 01:38:33;;;;;;;;;;;;;;;18.02;29.54;97257.41;5055138;28;19924;-82
2023/02/02 01:41:00;;;;;;;;;;;;;;;17.89;29.42;97273.03;5055378;28;19917;-82
2023/02/02 01:43:46;;;;;;;;;;;;;;;15.62;32.82;97266.31;5055140;28;20361;-83
2023/02/02 01:46:16;;;;;;;;;;;;;;;15.95;32.71;97267.84;5054934;28;19931;-82
2023/02/02 01:48:45;;;;;;;;;;;;;;;16.13;32.44;97263.81;5054951;28;19921;-82
2023/02/02 01:51:14;;;;;;;;;;;;;;;15.74;33.63;97265.91;5062880;28;19924;-83
2023/02/02 01:53:41;;;;;;;;;;;;;;;17.65;30.99;97268.50;5054822;28;20372;-82
2023/02/02 01:56:09;;;;;;;;;;;;;;;16.73;31.90;97268.38;5054588;28;19917;-82
2023/02/02 01:58:36;;;;;;;;;;;;;;;16.01;33.58;97296.72;5054715;28;19924;-82
2023/02/02 02:01:03;;;;;;;;;;;;;;;17.06;31.38;97278.88;5054493;28;19956;-82
2023/02/02 02:03:30;;;;;;;;;;;;;;;17.34;31.32;97277.88;5054520;28;19924;-82
2023/02/02 02:06:07;;;;;;;;;;;;;;;17.51;30.53;97279.69;5054198;28;19917;-83
2023/02/02 02:08:38;;;;;;;;;;;;;;;16.66;31.62;97287.81;5069418;28;20395;-82
2023/02/02 02:11:05;;;;;;;;;;;;;;;16.33;32.73;97287.13;5074588;28;19917;-82
2023/02/02 02:16:28;;;;;;;;;;;;;;;16.66;31.94;97293.34;5074205;28;19924;-82
2023/02/02 02:19:03;;;;;;;;;;;;;;;16.79;31.82;97300.00;5062788;28;19913;-82
2023/02/02 02:27:50;;;;;;;;;;;;;;;16.29;32.39;97316.78;5038308;28;19920;-82
2023/02/02 02:30:25;;;;;;;;;;;;;;;16.72;31.82;97309.13;5053358;28;19925;-82
2023/02/02 02:33:01;;;;;;;;;;;;;;;16.92;31.53;97307.44;5053982;28;20122;-82
2023/02/02 02:35:43;;;;;;;;;;;;;;;15.94;32.59;97325.16;5054139;28;19917;-82
2023/02/02 02:38:19;;;;;;;;;;;;;;;17.27;30.95;97318.31;5059725;28;19924;-82
2023/02/02 02:40:52;;;;;;;;;;;;;;;17.20;31.32;97329.47;5060940;28;19921;-82
2023/02/02 02:43:24;;;;;;;;;;;;;;;18.67;28.59;97330.56;5063811;28;20277;-83
2023/02/02 02:45:51;;;;;;;;;;;;;;;17.44;30.62;97332.47;5070388;28;20347;-82
2023/02/02 02:48:17;;;;;;;;;;;;;;;16.37;32.19;97331.41;5069411;28;19913;-82
2023/02/02 02:50:43;;;;;;;;;;;;;;;17.57;30.64;97328.84;5057452;28;19971;-82
2023/02/02 02:53:14;;;;;;;;;;;;;;;16.63;32.10;97342.03;5053854;28;19917;-82
2023/02/02 02:55:46;;;;;;;;;;;;;;;16.67;32.15;97330.94;5053941;28;19916;-82
2023/02/02 02:58:20;;;;;;;;;;;;;;;16.15;33.14;97340.97;5053970;28;19925;-82
2023/02/02 03:00:47;;;;;;;;;;;;;;;16.36;32.91;97349.25;5053663;28;19925;-82
2023/02/02 03:03:22;;;;;;;;;;;;;;;17.26;31.39;97322.31;5052593;28;19920;-83
2023/02/02 03:05:48;;;;;;;;;;;;;;;16.33;33.09;97344.50;5064979;28;20503;-82
2023/02/02 03:08:17;;;;;;;;;;;;;;;16.98;31.69;97332.78;5073619;28;20007;-82
2023/02/02 03:10:44;;;;;;;;;;;;;;;16.63;32.26;97346.78;5072408;28;19923;-83
2023/02/02 03:13:11;;;;;;;;;;;;;;;16.18;33.17;97343.72;5073419;28;19970;-82
2023/02/02 03:15:41;;;;;;;;;;;;;;;17.51;31.07;97346.28;5066264;28;19916;-83
2023/02/02 03:18:07;;;;;;;;;;;;;;;17.19;31.00;97347.31;5053522;28;20019;-83
2023/02/02 03:20:33;;;;;;;;;;;;;;;17.16;31.34;97359.22;5055592;28;19947;-82
2023/02/02 03:22:59;;;;;;;;;;;;;;;17.13;31.71;97360.00;5073480;28;19970;-82
2023/02/02 03:25:25;;;;;;;;;;;;;;;16.59;32.01;97366.22;5073888;28;20356;-83
2023/02/02 03:27:51;;;;;;;;;;;;;;;16.75;32.22;97361.00;5073181;28;19917;-83
2023/02/02 03:30:18;;;;;;;;;;;;;;;16.80;32.02;97349.50;5073537;28;19932;-83
2023/02/02 03:32:45;;;;;;;;;;;;;;;16.42;32.07;97356.75;5064880;28;19922;-82
2023/02/02 03:35:11;;;;;;;;;;;;;;;17.82;30.65;97373.84;5053553;28;19917;-83
2023/02/02 03:37:37;;;;;;;;;;;;;;;17.08;31.34;97365.22;5055246;28;20288;-83
2023/02/02 03:40:04;;;;;;;;;;;;;;;16.61;32.24;97377.69;5073419;28;19983;-83
2023/02/02 03:42:30;;;;;;;;;;;;;;;17.88;30.42;97371.41;5073050;28;20368;-83
2023/02/02 03:44:56;;;;;;;;;;;;;;;17.02;31.90;97370.38;5073690;28;19944;-82
2023/02/02 03:47:22;;;;;;;;;;;;;;;17.57;31.02;97366.91;5071529;28;19928;-82
2023/02/02 03:49:48;;;;;;;;;;;;;;;17.57;31.08;97378.00;5072054;28;19917;-83
2023/02/02 03:52:14;;;;;;;;;;;;;;;17.07;31.34;97372.72;5073884;28;19917;-83
2023/02/02 03:54:40;;;;;;;;;;;;;;;17.01;31.54;97374.34;5072932;28;19917;-83
2023/02/02 03:57:06;;;;;;;;;;;;;;;17.52;31.09;97370.91;5066430;28;19924;-83
2023/02/02 03:59:32;;;;;;;;;;;;;;;17.42;31.69;97371.72;5053021;28;19929;-83
2023/02/02 04:01:58;;;;;;;;;;;;;;;17.95;30.30;97365.78;5053036;28;19921;-83
2023/02/02 04:04:24;;;;;;;;;;;;;;;17.12;31.44;97369.53;5052995;28;20287;-83
2023/02/02 04:06:50;;;;;;;;;;;;;;;16.80;32.08;97360.59;5054198;28;19917;-82
2023/02/02 04:09:16;;;;;;;;;;;;;;;16.61;32.18;97380.47;5053034;28;19921;-83
2023/02/02 04:11:42;;;;;;;;;;;;;;;16.60;32.00;97362.25;5052539;28;20396;-83
2023/02/02 04:14:08;;;;;;;;;;;;;;;16.28;32.52;97364.28;5053067;28;19961;-82
2023/02/02 04:16:36;;;;;;;;;;;;;;;17.83;30.36;97357.97;5056614;28;19916;-83
2023/02/02 04:19:03;;;;;;;;;;;;;;;17.48;31.00;97361.78;5057031;28;19920;-82
2023/02/02 04:21:29;;;;;;;;;;;;;;;16.28;31.73;97345.69;5056835;28;19917;-85
2023/02/02 04:23:55;;;;;;;;;;;;;;;16.11;33.15;97387.25;5066636;28;19924;-83
2023/02/02 04:26:24;;;;;;;;;;;;;;;16.89;31.64;97380.34;5076368;28;19916;-83
2023/02/02 04:28:50;;;;;;;;;;;;;;;16.89;31.68;97374.00;5076104;28;19924;-83
2023/02/02 04:31:16;;;;;;;;;;;;;;;17.06;31.74;97373.91;5076006;28;20292;-83
2023/02/02 04:33:42;;;;;;;;;;;;;;;16.83;31.05;97383.91;5076091;28;19920;-83
2023/02/02 04:36:09;;;;;;;;;;;;;;;17.29;30.62;97367.88;5076354;28;19916;-83
2023/02/02 04:38:35;;;;;;;;;;;;;;;17.02;31.84;97375.13;5076156;28;19951;-83
2023/02/02 04:41:05;;;;;;;;;;;;;;;17.48;30.56;97383.19;5075066;28;19971;-83
2023/02/02 04:43:32;;;;;;;;;;;;;;;17.33;30.78;97374.16;5076423;28;19916;-83
2023/02/02 04:45:58;;;;;;;;;;;;;;;18.10;29.87;97372.81;5076007;28;19912;-83
2023/02/02 04:48:24;;;;;;;;;;;;;;;17.88;30.13;97371.41;5076156;28;19943;-83
2023/02/02 04:50:50;;;;;;;;;;;;;;;18.56;28.67;97372.38;5056845;28;19913;-83
2023/02/02 04:53:16;;;;;;;;;;;;;;;19.09;27.97;97380.09;5056262;28;19917;-83
2023/02/02 04:55:42;;;;;;;;;;;;;;;17.89;29.86;97367.44;5056029;28;19932;-83
2023/02/02 04:58:08;;;;;;;;;;;;;;;18.12;29.25;97373.19;5067490;28;19912;-83
2023/02/02 05:00:34;;;;;;;;;;;;;;;17.83;29.96;97371.84;5075859;28;19928;-83
2023/02/02 05:03:00;;;;;;;;;;;;;;;17.88;29.46;97366.66;5075557;28;20007;-83
2023/02/02 05:05:26;;;;;;;;;;;;;;;17.51;31.14;97374.88;5075997;28;20393;-83
2023/02/02 05:07:52;;;;;;;;;;;;;;;17.98;29.54;97364.19;5075707;28;19921;-83
2023/02/02 05:10:18;;;;;;;;;;;;;;;17.44;30.08;97372.09;5075454;28;19913;-83
2023/02/02 05:12:44;;;;;;;;;;;;;;;17.94;29.41;97373.34;5075539;28;20364;-83
2023/02/02 05:15:10;;;;;;;;;;;;;;;17.75;29.92;97373.91;5063144;28;20015;-83
2023/02/02 05:17:36;;;;;;;;;;;;;;;19.43;27.63;97378.03;5055576;28;19999;-83
2023/02/02 05:20:03;;;;;;;;;;;;;;;20.52;26.15;97367.88;5055549;28;20295;-84
2023/02/02 05:22:29;;;;;;;;;;;;;;;20.81;25.42;97370.91;5055526;28;20011;-84
2023/02/02 05:24:55;;;;;;;;;;;;;;;21.37;24.80;97376.53;5055308;28;19916;-83
2023/02/02 05:27:21;;;;;;;;;;;;;;;21.11;25.05;97372.69;5054321;28;19917;-84
2023/02/02 05:29:47;;;;;;;;;;;;;;;21.48;24.80;97375.06;5070867;28;19996;-84
2023/02/02 05:32:13;;;;;;;;;;;;;;;20.49;25.53;97371.50;5057945;28;19916;-84
2023/02/02 05:34:39;;;;;;;;;;;;;;;20.46;25.81;97369.59;5055252;28;20340;-84
2023/02/02 05:37:05;;;;;;;;;;;;;;;21.51;24.59;97377.00;5054893;28;19916;-84
2023/02/02 05:39:31;;;;;;;;;;;;;;;21.30;24.14;97378.28;5054819;28;20046;-84
2023/02/02 05:41:57;;;;;;;;;;;;;;;20.51;25.33;97371.09;5055076;28;19970;-83
2023/02/02 05:44:23;;;;;;;;;;;;;;;20.85;25.08;97371.59;5055058;28;19916;-84
2023/02/02 05:46:49;;;;;;;;;;;;;;;21.55;23.83;97374.13;5058227;28;19927;-84
2023/02/02 05:49:15;;;;;;;;;;;;;;;20.83;24.99;97373.25;5056515;28;19924;-84
2023/02/02 05:51:46;;;;;;;;;;;;;;;21.33;24.63;97377.38;5055163;28;19916;-84
2023/02/02 05:54:18;;;;;;;;;;;;;;;20.66;25.38;97375.97;5054419;28;19921;-84
2023/02/02 05:56:44;;;;;;;;;;;;;;;20.85;25.06;97376.41;5070324;28;19924;-84
2023/02/02 05:59:10;;;;;;;;;;;;;;;20.07;26.02;97377.81;5054531;28;20350;-84
2023/02/02 06:01:36;;;;;;;;;;;;;;;19.51;26.00;97379.50;5055217;28;20019;-83
2023/02/02 06:04:02;;;;;;;;;;;;;;;19.72;25.90;97365.25;5054532;28;20426;-83
2023/02/02 06:06:28;;;;;;;;;;;;;;;19.47;27.08;97367.63;5055575;28;19952;-83
2023/02/02 06:08:54;;;;;;;;;;;;;;;19.31;26.62;97373.81;5054675;28;19916;-83
2023/02/02 06:11:20;;;;;;;;;;;;;;;19.56;26.74;97367.88;5054212;28;19920;-83
2023/02/02 06:13:46;;;;;;;;;;;;;;;18.62;27.36;97362.38;5054588;28;19917;-83
2023/02/02 06:16:12;;;;;;;;;;;;;;;18.86;27.33;97360.47;5054600;28;19952;-83
2023/02/02 06:18:38;;;;;;;;;;;;;;;19.26;26.70;97356.78;5054424;28;19923;-83
2023/02/02 06:21:05;;;;;;;;;;;;;;;20.60;25.16;97358.16;5054283;28;19917;-83
2023/02/02 06:23:32;;;;;;;;;;;;;;;20.57;25.43;97347.06;5068953;28;19924;-83
2023/02/02 06:25:58;;;;;;;;;;;;;;;19.03;27.19;97351.13;5074290;28;19920;-83
2023/02/02 06:28:24;;;;;;;;;;;;;;;18.21;28.04;97340.16;5074231;28;20011;-83
2023/02/02 06:30:50;;;;;;;;;;;;;;;19.37;26.14;97348.31;5070811;28;19917;-83
2023/02/02 06:33:16;;;;;;;;;;;;;;;18.87;26.98;97339.81;5057853;28;19966;-83
2023/02/02 06:35:42;;;;;;;;;;;;;;;20.42;25.16;97343.75;5059649;28;19936;-83
2023/02/02 06:38:09;;;;;;;;;;;;;;;19.19;26.43;97348.53;5053879;28;19917;-83
2023/02/02 06:40:35;;;;;;;;;;;;;;;20.48;25.02;97356.00;5054349;28;19917;-83
2023/02/02 06:43:02;;;;;;;;;;;;;;;19.22;26.13;97345.72;5053964;28;19924;-83
2023/02/02 06:45:29;;;;;;;;;;;;;;;19.58;26.05;97345.22;5061291;28;19916;-83
2023/02/02 06:48:00;;;;;;;;;;;;;;;18.95;26.34;97346.88;5074228;28;19921;-83
2023/02/02 06:50:26;;;;;;;;;;;;;;;19.44;26.36;97354.53;5073790;28;19923;-83
2023/02/02 06:52:52;;;;;;;;;;;;;;;18.58;27.13;97358.84;5056645;28;20372;-83
2023/02/02 06:55:18;;;;;;;;;;;;;;;18.63;28.00;97350.84;5056353;28;19928;-83
2023/02/02 06:57:45;;;;;;;;;;;;;;;18.85;27.07;97353.38;5057405;28;19959;-83
2023/02/02 07:00:11;;;;;;;;;;;;;;;19.88;26.04;97356.25;5053808;28;19978;-83
2023/02/02 07:02:37;;;;;;;;;;;;;;;19.38;26.21;97356.25;5053483;28;20380;-83
2023/02/02 07:05:04;;;;;;;;;;;;;;;20.68;24.66;97345.63;5053890;28;19916;-83
2023/02/02 07:07:30;;;;;;;;;;;;;;;19.60;25.76;97349.16;5053826;28;20292;-83
2023/02/02 07:09:56;;;;;;;;;;;;;;;20.91;24.18;97352.38;5053703;28;20015;-83
2023/02/02 07:12:23;;;;;;;;;;;;;;;21.37;23.23;97349.41;5053523;28;20410;-83
2023/02/02 07:14:49;;;;;;;;;;;;;;;21.33;23.90;97346.66;5071008;28;19916;-83
2023/02/02 07:17:15;;;;;;;;;;;;;;;21.46;23.43;97349.59;5073434;28;20375;-83
2023/02/02 07:19:41;;;;;;;;;;;;;;;22.41;22.67;97343.63;5073256;28;19917;-84
2023/02/02 07:22:07;;;;;;;;;;;;;;;22.21;22.97;97362.56;5072311;28;20015;-84
2023/02/02 07:24:33;;;;;;;;;;;;;;;22.44;23.13;97349.16;5073635;28;19927;-84
2023/02/02 07:26:59;;;;;;;;;;;;;;;21.25;24.39;97370.41;5070807;28;19916;-84
2023/02/02 07:29:25;;;;;;;;;;;;;;;20.98;24.63;97368.97;5053266;28;19932;-84
2023/02/02 07:31:51;;;;;;;;;;;;;;;20.37;25.45;97366.56;5070040;28;19967;-84
2023/02/02 07:34:17;;;;;;;;;;;;;;;20.96;25.04;97372.16;5073329;28;20324;-83
2023/02/02 07:36:43;;;;;;;;;;;;;;;21.27;24.78;97378.31;5073482;28;20015;-84
2023/02/02 07:39:10;;;;;;;;;;;;;;;21.98;23.96;97381.06;5073171;28;19960;-84
2023/02/02 07:41:36;;;;;;;;;;;;;;;21.75;24.15;97367.25;5073337;28;19917;-84
2023/02/02 07:44:03;;;;;;;;;;;;;;;21.79;24.08;97375.56;5073295;28;19959;-84
2023/02/02 07:46:29;;;;;;;;;;;;;;;21.13;24.83;97382.22;5073231;28;20390;-84
2023/02/02 07:48:58;;;;;;;;;;;;;;;20.35;25.77;97371.75;5055017;28;19924;-84
2023/02/02 07:51:25;;;;;;;;;;;;;;;19.64;26.45;97379.72;5057275;28;19921;-84
2023/02/02 07:53:51;;;;;;;;;;;;;;;20.80;25.37;97380.47;5056966;28;19964;-84
2023/02/02 07:56:19;;;;;;;;;;;;;;;20.58;26.31;97382.88;5057127;28;19956;-84
2023/02/02 07:58:45;;;;;;;;;;;;;;;19.99;26.81;97373.59;5075577;28;19943;-83
2023/02/02 08:01:12;;;;;;;;;;;;;;;20.19;25.54;97379.19;5077346;28;20342;-84
2023/02/02 08:03:39;;;;;;;;;;;;;;;20.28;25.84;97366.31;5076536;28;19970;-84
2023/02/02 08:06:13;;;;;;;;;;;;;;;20.47;25.86;97368.34;5057679;28;19923;-84
2023/02/02 08:08:39;;;;;;;;;;;;;;;20.95;25.43;97375.41;5056998;28;20348;-84
2023/02/02 08:11:07;;;;;;;;;;;;;;;21.12;25.50;97361.09;5056521;28;19917;-83
2023/02/02 08:13:33;;;;;;;;;;;;;;;20.84;25.62;97356.06;5056699;28;19920;-84
2023/02/02 08:15:59;;;;;;;;;;;;;;;19.50;27.51;97360.44;5056757;28;19916;-85
2023/02/02 08:18:25;;;;;;;;;;;;;;;19.21;28.00;97351.66;5056371;28;20269;-85
2023/02/02 08:20:51;;;;;;;;;;;;;;;19.47;28.41;97364.06;5057670;28;20046;-84
2023/02/02 08:23:22;;;;;;;;;;;;;;;20.02;27.34;97351.22;5076550;28;19912;-84
2023/02/02 08:25:49;;;;;;;;;;;;;;;20.49;26.26;97351.22;5073024;28;20037;-84
2023/02/02 08:28:15;;;;;;;;;;;;;;;21.02;25.87;97353.72;5056150;28;20463;-84
2023/02/02 08:30:41;;;;;;;;;;;;;;;21.34;25.38;97348.25;5056085;28;19925;-84
2023/02/02 08:33:08;;;;;;;;;;;;;;;21.47;24.90;97339.22;5056229;28;19967;-84
2023/02/02 08:35:34;;;;;;;;;;;;;;;22.19;23.97;97325.88;5056378;28;19921;-84
2023/02/02 08:38:04;;;;;;;;;;;;;;;22.20;24.25;97336.59;5058689;28;19967;-84
2023/02/02 08:40:30;;;;;;;;;;;;;;;21.74;24.80;97350.91;5076166;28;19923;-84
2023/02/02 08:42:56;;;;;;;;;;;;;;;20.87;25.84;97349.63;5076450;28;19916;-83
2023/02/02 08:45:22;;;;;;;;;;;;;;;20.74;26.33;97356.31;5076003;28;19916;-83
2023/02/02 08:47:48;;;;;;;;;;;;;;;21.25;25.79;97352.84;5075961;28;20015;-84
2023/02/02 08:50:14;;;;;;;;;;;;;;;20.93;26.28;97353.53;5076016;28;20277;-84
2023/02/02 08:52:40;;;;;;;;;;;;;;;21.34;25.44;97350.25;5075325;28;19927;-83
2023/02/02 08:55:06;;;;;;;;;;;;;;;18.66;29.82;97332.53;5073218;28;20049;-83
2023/02/02 08:57:33;;;;;;;;;;;;;;;19.33;29.36;97348.31;5056869;28;20283;-83
2023/02/02 08:59:59;;;;;;;;;;;;;;;20.68;26.76;97347.63;5056361;28;19924;-84
2023/02/02 09:02:25;;;;;;;;;;;;;;;20.56;26.92;97343.47;5055659;28;20011;-84
2023/02/02 09:04:51;;;;;;;;;;;;;;;19.30;28.77;97352.72;5055928;28;20353;-83
2023/02/02 09:07:17;;;;;;;;;;;;;;;20.80;26.84;97347.00;5055782;28;19917;-84
2023/02/02 09:09:43;;;;;;;;;;;;;;;20.31;27.66;97353.53;5071893;28;20028;-84
2023/02/02 09:12:09;;;;;;;;;;;;;;;20.59;27.12;97347.41;5058994;28;20335;-84
2023/02/02 09:14:35;;;;;;;;;;;;;;;21.24;25.79;97352.06;5075457;28;19916;-84
2023/02/02 09:17:01;;;;;;;;;;;;;;;19.77;27.64;97348.06;5075578;28;19917;-83
2023/02/02 09:19:27;;;;;;;;;;;;;;;19.58;27.56;97351.53;5075294;28;20280;-84
2023/02/02 09:21:53;;;;;;;;;;;;;;;19.38;28.52;97356.25;5075509;28;19943;-84
2023/02/02 09:24:19;;;;;;;;;;;;;;;18.94;29.60;97350.84;5073836;28;19912;-83
2023/02/02 09:26:45;;;;;;;;;;;;;;;18.20;29.82;97352.47;5055302;28;20399;-84
2023/02/02 09:29:12;;;;;;;;;;;;;;;17.55;32.02;97358.97;5058521;28;20443;-84
2023/02/02 09:31:38;;;;;;;;;;;;;;;18.61;30.32;97350.47;5058833;28;19955;-83
2023/02/02 09:34:05;;;;;;;;;;;;;;;17.89;31.06;97359.09;5055623;28;20020;-83
2023/02/02 09:36:31;;;;;;;;;;;;;;;18.67;30.26;97350.00;5067906;28;20027;-83
2023/02/02 09:38:58;;;;;;;;;;;;;;;18.61;30.21;97363.56;5055246;28;19964;-83
2023/02/02 09:41:40;;;;;;;;;;;;;;;18.97;28.94;97361.94;5055467;28;19920;-84
2023/02/02 09:44:32;;;;;;;;;;;;;;;19.10;28.51;97356.59;5054662;28;19962;-84
2023/02/02 09:47:07;;;;;;;;;;;;;;;16.64;32.58;97321.44;5056090;28;19920;-84
2023/02/02 09:49:37;;;;;;;;;;;;;;;15.87;34.38;97366.69;5054949;28;19921;-84
2023/02/02 09:52:09;;;;;;;;;;;;;;;17.57;32.07;97378.00;5054451;28;19975;-83
2023/02/02 09:54:39;;;;;;;;;;;;;;;17.40;32.73;97353.91;5054748;28;19959;-84
2023/02/02 09:57:12;;;;;;;;;;;;;;;18.44;30.82;97381.19;5055104;28;19916;-84
2023/02/02 09:59:39;;;;;;;;;;;;;;;17.46;32.37;97383.59;5060277;28;19933;-83
2023/02/02 10:02:25;;;;;;;;;;;;;;;17.19;32.81;97380.59;5074751;28;19916;-83
2023/02/02 10:04:53;;;;;;;;;;;;;;;16.73;33.35;97384.78;5067242;28;19917;-84
2023/02/02 10:07:24;;;;;;;;;;;;;;;16.71;33.07;97387.16;5075002;28;19982;-83
2023/02/02 10:09:52;;;;;;;;;;;;;;;16.11;34.62;97404.66;5074729;28;19916;-83
2023/02/02 10:12:39;;;;;;;;;;;;;;;17.23;32.07;97391.66;5074133;28;19916;-84
2023/02/02 10:15:12;;;;;;;;;;;;;;;16.48;33.16;97391.13;5073994;28;19916;-83
2023/02/02 10:17:47;;;;;;;;;;;;;;;17.97;31.17;97402.28;5074511;28;19924;-83
2023/02/02 10:20:36;;;;;;;;;;;;;;;16.62;32.14;97390.34;5070556;28;19917;-83
2023/02/02 10:23:08;;;;;;;;;;;;;;;16.39;33.17;97401.06;5034827;28;19974;-83
2023/02/02 10:25:34;;;;;;;;;;;;;;;15.31;35.39;97389.56;5054083;28;19921;-83
2023/02/02 10:28:05;;;;;;;;;;;;;;;15.02;35.65;97402.53;5054124;28;19924;-83
2023/02/02 10:30:43;;;;;;;;;;;;;;;15.60;35.19;97401.50;5068759;28;19925;-84
2023/02/02 10:33:19;;;;;;;;;;;;;;;16.84;32.37;97407.69;5074071;28;19924;-83
2023/02/02 10:36:05;;;;;;;;;;;;;;;16.71;32.56;97417.66;5069271;28;19924;-83
2023/02/02 10:38:43;;;;;;;;;;;;;;;17.91;30.92;97399.16;5052228;28;19921;-83
2023/02/02 10:41:18;;;;;;;;;;;;;;;16.82;33.05;97410.06;5054125;28;19924;-83
2023/02/02 10:44:08;;;;;;;;;;;;;;;17.32;32.06;97410.66;5071660;28;19956;-83
2023/02/02 10:46:34;;;;;;;;;;;;;;;16.85;32.63;97412.06;5073862;28;20273;-83
2023/02/02 10:49:09;;;;;;;;;;;;;;;17.91;30.80;97426.94;5073860;28;19923;-83
2023/02/02 10:51:36;;;;;;;;;;;;;;;17.41;31.90;97416.53;5073915;28;19925;-83
2023/02/02 10:54:12;;;;;;;;;;;;;;;16.16;33.03;97426.41;5072475;28;19999;-84
2023/02/02 10:56:47;;;;;;;;;;;;;;;16.33;33.73;97433.94;5073528;28;19923;-83
2023/02/02 10:59:20;;;;;;;;;;;;;;;15.75;33.80;97439.84;5074083;28;19925;-83
2023/02/02 11:01:47;;;;;;;;;;;;;;;16.40;32.75;97441.44;5073458;28;19916;-83
2023/02/02 11:06:58;;;;;;;;;;;;;;;16.61;33.21;97433.13;5074156;28;20410;-83
2023/02/02 11:09:30;;;;;;;;;;;;;;;16.60;33.28;97448.16;5073824;28;19916;-84
2023/02/02 11:12:11;;;;;;;;;;;;;;;16.00;34.22;97442.66;5063690;28;20467;-82
2023/02/02 11:14:42;;;;;;;;;;;;;;;15.90;34.60;97452.53;5053662;28;19924;-83
2023/02/02 11:17:15;;;;;;;;;;;;;;;16.17;34.07;97452.94;5053283;28;19916;-83
2023/02/02 11:19:41;;;;;;;;;;;;;;;16.55;33.03;97462.41;5069022;28;20019;-83
2023/02/02 11:22:22;;;;;;;;;;;;;;;17.08;32.18;97460.28;5058304;28;19951;-83
2023/02/02 11:24:48;;;;;;;;;;;;;;;16.71;33.36;97462.75;5074458;28;20007;-82
2023/02/02 11:27:18;;;;;;;;;;;;;;;15.96;34.92;97457.66;5077312;28;19928;-82
2023/02/02 11:29:46;;;;;;;;;;;;;;;17.42;32.30;97466.06;5068800;28;20019;-82
2023/02/02 11:32:18;;;;;;;;;;;;;;;17.93;31.55;97463.41;5077617;28;20021;-82
2023/02/02 11:34:44;;;;;;;;;;;;;;;16.28;33.90;97464.00;5077343;28;20386;-82
2023/02/02 11:37:10;;;;;;;;;;;;;;;16.05;34.39;97458.06;5077555;28;19970;-83
2023/02/02 11:39:37;;;;;;;;;;;;;;;16.02;35.22;97467.94;5077818;28;19995;-83
2023/02/02 11:42:06;;;;;;;;;;;;;;;16.63;33.30;97457.66;5077343;28;19917;-85
2023/02/02 11:44:34;;;;;;;;;;;;;;;16.05;34.59;97467.16;5077515;28;19917;-83
2023/02/02 11:47:02;;;;;;;;;;;;;;;15.47;35.72;97466.69;5057946;28;19967;-84
2023/02/02 11:49:29;;;;;;;;;;;;;;;15.06;37.27;97477.97;5057260;28;19916;-83
2023/02/02 11:51:58;;;;;;;;;;;;;;;16.16;35.00;97459.66;5057022;28;19935;-84
2023/02/02 11:54:29;;;;;;;;;;;;;;;15.21;36.53;97476.06;5056794;28;19920;-82
2023/02/02 11:56:58;;;;;;;;;;;;;;;15.90;34.97;97482.19;5057385;28;19995;-83
2023/02/02 11:59:33;;;;;;;;;;;;;;;16.26;35.11;97483.78;5057041;28;19925;-83
2023/02/02 12:02:11;;;;;;;;;;;;;;;16.53;34.44;97475.88;5061366;28;19920;-84
2023/02/02 12:04:37;;;;;;;;;;;;;;;16.80;34.10;97490.88;5074611;28;19970;-83
2023/02/02 12:07:33;;;;;;;;;;;;;;;16.92;33.67;97471.03;5077033;28;19917;-83
2023/02/02 12:10:00;;;;;;;;;;;;;;;16.39;34.62;97486.94;5052137;28;19956;-83
2023/02/02 12:12:32;;;;;;;;;;;;;;;16.28;34.72;97486.16;5057213;28;19924;-84
2023/02/02 12:15:25;;;;;;;;;;;;;;;16.07;35.13;97486.16;5055529;28;20015;-83
2023/02/02 12:17:55;;;;;;;;;;;;;;;15.73;36.21;97505.88;5041143;28;20365;-83
2023/02/02 12:20:33;;;;;;;;;;;;;;;15.54;36.12;97484.06;5057885;28;19917;-83
2023/02/02 12:23:17;;;;;;;;;;;;;;;15.64;35.77;97502.69;5056684;28;19948;-83
2023/02/02 12:25:59;;;;;;;;;;;;;;;16.21;35.63;97508.31;5056252;28;19978;-83
2023/02/02 12:28:43;;;;;;;;;;;;;;;16.80;33.03;97523.34;5055967;28;19917;-83
2023/02/02 12:31:15;;;;;;;;;;;;;;;16.54;34.37;97517.06;5072437;28;20394;-83
2023/02/02 12:33:56;;;;;;;;;;;;;;;17.08;32.60;97517.75;5076803;28;19916;-82
2023/02/02 12:36:31;;;;;;;;;;;;;;;17.93;32.31;97520.94;5070748;28;19921;-82
2023/02/02 12:39:18;;;;;;;;;;;;;;;16.95;33.68;97517.38;5056237;28;20004;-83
2023/02/02 12:42:04;;;;;;;;;;;;;;;16.61;34.05;97521.78;5054931;28;20303;-83
2023/02/02 12:44:49;;;;;;;;;;;;;;;17.94;32.03;97530.84;5071676;28;19921;-82
2023/02/02 12:47:28;;;;;;;;;;;;;;;16.42;34.20;97527.69;5056545;28;19920;-83
2023/02/02 12:50:06;;;;;;;;;;;;;;;15.81;35.56;97539.91;5056318;28;19924;-83
2023/02/02 12:52:32;;;;;;;;;;;;;;;15.21;36.03;97545.97;5056144;28;19916;-83
2023/02/02 12:54:58;;;;;;;;;;;;;;;15.52;35.33;97538.25;5056787;28;19917;-84
2023/02/02 12:57:42;;;;;;;;;;;;;;;15.93;35.35;97542.28;5055561;28;19917;-83
2023/02/02 13:00:17;;;;;;;;;;;;;;;15.59;36.69;97558.41;5055231;28;19931;-83
2023/02/02 13:03:02;;;;;;;;;;;;;;;15.82;36.21;97567.16;5055884;28;20015;-83
2023/02/02 13:05:44;;;;;;;;;;;;;;;14.83;37.49;97574.19;5056182;28;19967;-84
2023/02/02 13:08:29;;;;;;;;;;;;;;;15.62;36.17;97577.00;5055869;28;19916;-84
2023/02/02 13:11:02;;;;;;;;;;;;;;;14.94;37.53;97585.28;5056415;28;20008;-83